sensor_id;sensor_type;location;lat;lon;timestamp;P1;durP1;ratioP1;P2;durP2;ratioP2
66619;SDS011;53484;51.356;6.732;2022-10-16T04:18:37;3.93;;;1.80;;
66619;SDS011;53484;51.356;6.732;2022-10-16T04:21:04;5.75;;;2.33;;
66619;SDS011;53484;51.356;6.732;2022-10-16T04:23:30;4.05;;;1.95;;
66619;SDS011;53484;51.356;6.732;2022-10-16T04:25:57;4.28;;;1.90;;
66619;SDS011;53484;51.356;6.732;2022-10-16T04:28:23;5.00;;;2.00;;
66619;SDS011;53484;51.356;6.732;2022-10-16T04:30:49;6.77;;;1.90;;
66619;SDS011;53484;51.356;6.732;2022-10-16T04:33:15;4.85;;;1.75;;
66619;SDS011;53484;51.356;6.732;2022-10-16T04:35:43;3.88;;;1.73;;
66619;SDS011;53484;51.356;6.732;2022-10-16T04:38:09;6.55;;;1.80;;
66619;SDS011;53484;51.356;6.732;2022-10-16T04:40:36;6.18;;;1.98;;
66619;SDS011;53484;51.356;6.732;2022-10-16T04:43:02;4.50;;;1.90;;
66619;SDS011;53484;51.356;6.732;2022-10-16T04:45:28;6.13;;;1.98;;
66619;SDS011;53484;51.356;6.732;2022-10-16T04:47:56;4.90;;;2.03;;
66619;SDS011;53484;51.356;6.732;2022-10-16T04:50:22;4.15;;;2.00;;
66619;SDS011;53484;51.356;6.732;2022-10-16T04:52:50;5.78;;;1.98;;
66619;SDS011;53484;51.356;6.732;2022-10-16T04:55:16;3.83;;;1.57;;
66619;SDS011;53484;51.356;6.732;2022-10-16T04:57:42;6.28;;;1.70;;
66619;SDS011;53484;51.356;6.732;2022-10-16T05:00:09;6.90;;;1.90;;
66619;SDS011;53484;51.356;6.732;2022-10-16T05:02:36;4.80;;;1.67;;
66619;SDS011;53484;51.356;6.732;2022-10-16T05:05:02;6.88;;;1.60;;
66619;SDS011;53484;51.356;6.732;2022-10-16T05:07:29;4.57;;;2.00;;
66619;SDS011;53484;51.356;6.732;2022-10-16T05:09:56;4.65;;;1.90;;
66619;SDS011;53484;51.356;6.732;2022-10-16T05:12:23;7.40;;;2.30;;
66619;SDS011;53484;51.356;6.732;2022-10-16T05:14:49;7.05;;;1.90;;
66619;SDS011;53484;51.356;6.732;2022-10-16T05:17:15;5.18;;;1.75;;
66619;SDS011;53484;51.356;6.732;2022-10-16T05:19:41;4.50;;;1.70;;
66619;SDS011;53484;51.356;6.732;2022-10-16T05:22:08;3.58;;;1.52;;
66619;SDS011;53484;51.356;6.732;2022-10-16T05:24:34;5.43;;;1.92;;
66619;SDS011;53484;51.356;6.732;2022-10-16T05:27:02;3.50;;;1.52;;
66619;SDS011;53484;51.356;6.732;2022-10-16T05:29:28;4.80;;;1.80;;
66619;SDS011;53484;51.356;6.732;2022-10-16T05:31:55;3.43;;;1.63;;
66619;SDS011;53484;51.356;6.732;2022-10-16T05:34:21;11.13;;;1.60;;
66619;SDS011;53484;51.356;6.732;2022-10-16T05:36:48;4.20;;;1.88;;
66619;SDS011;53484;51.356;6.732;2022-10-16T05:39:15;3.33;;;1.73;;
66619;SDS011;53484;51.356;6.732;2022-10-16T05:41:41;4.75;;;1.85;;
66619;SDS011;53484;51.356;6.732;2022-10-16T05:44:09;4.60;;;1.90;;
66619;SDS011;53484;51.356;6.732;2022-10-16T05:46:35;5.65;;;1.80;;
66619;SDS011;53484;51.356;6.732;2022-10-16T05:49:02;5.25;;;2.05;;
66619;SDS011;53484;51.356;6.732;2022-10-16T05:51:28;4.95;;;2.03;;
66619;SDS011;53484;51.356;6.732;2022-10-16T05:53:54;7.10;;;1.90;;
66619;SDS011;53484;51.356;6.732;2022-10-16T05:56:21;4.10;;;1.60;;
66619;SDS011;53484;51.356;6.732;2022-10-16T05:58:47;6.75;;;1.90;;
66619;SDS011;53484;51.356;6.732;2022-10-16T06:01:15;3.50;;;1.83;;
66619;SDS011;53484;51.356;6.732;2022-10-16T06:03:42;5.70;;;1.95;;
66619;SDS011;53484;51.356;6.732;2022-10-16T06:06:09;5.97;;;2.38;;
66619;SDS011;53484;51.356;6.732;2022-10-16T06:08:36;6.80;;;2.17;;
66619;SDS011;53484;51.356;6.732;2022-10-16T06:11:03;4.22;;;1.90;;
66619;SDS011;53484;51.356;6.732;2022-10-16T06:13:29;6.55;;;2.28;;
66619;SDS011;53484;51.356;6.732;2022-10-16T06:15:56;5.40;;;1.98;;
66619;SDS011;53484;51.356;6.732;2022-10-16T06:18:24;9.05;;;1.98;;
66619;SDS011;53484;51.356;6.732;2022-10-16T06:20:51;7.40;;;2.13;;
66619;SDS011;53484;51.356;6.732;2022-10-16T06:23:17;4.22;;;1.75;;
66619;SDS011;53484;51.356;6.732;2022-10-16T06:25:43;5.00;;;2.13;;
66619;SDS011;53484;51.356;6.732;2022-10-16T06:28:10;4.68;;;2.00;;
66619;SDS011;53484;51.356;6.732;2022-10-16T06:30:36;4.28;;;1.85;;
66619;SDS011;53484;51.356;6.732;2022-10-16T06:33:02;4.93;;;1.80;;
66619;SDS011;53484;51.356;6.732;2022-10-16T06:35:30;4.72;;;2.08;;
66619;SDS011;53484;51.356;6.732;2022-10-16T06:37:57;6.13;;;2.40;;
66619;SDS011;53484;51.356;6.732;2022-10-16T06:40:23;5.63;;;1.90;;
66619;SDS011;53484;51.356;6.732;2022-10-16T06:42:49;5.43;;;2.50;;
66619;SDS011;53484;51.356;6.732;2022-10-16T06:45:16;8.03;;;2.20;;
66619;SDS011;53484;51.356;6.732;2022-10-16T06:47:43;5.20;;;2.05;;
66619;SDS011;53484;51.356;6.732;2022-10-16T06:50:09;5.57;;;1.70;;
66619;SDS011;53484;51.356;6.732;2022-10-16T06:52:37;5.93;;;2.13;;
66619;SDS011;53484;51.356;6.732;2022-10-16T06:55:03;5.43;;;2.17;;
66619;SDS011;53484;51.356;6.732;2022-10-16T06:57:30;4.60;;;1.80;;
66619;SDS011;53484;51.356;6.732;2022-10-16T06:59:57;4.63;;;1.92;;
66619;SDS011;53484;51.356;6.732;2022-10-16T07:02:23;5.03;;;2.03;;
66619;SDS011;53484;51.356;6.732;2022-10-16T07:04:49;5.78;;;2.50;;
66619;SDS011;53484;51.356;6.732;2022-10-16T07:07:15;5.32;;;2.20;;
66619;SDS011;53484;51.356;6.732;2022-10-16T07:09:43;7.90;;;2.70;;
66619;SDS011;53484;51.356;6.732;2022-10-16T07:12:09;5.82;;;2.40;;
66619;SDS011;53484;51.356;6.732;2022-10-16T07:14:36;7.00;;;2.40;;
66619;SDS011;53484;51.356;6.732;2022-10-16T07:17:02;4.53;;;2.53;;
66619;SDS011;53484;51.356;6.732;2022-10-16T07:19:28;6.65;;;2.40;;
66619;SDS011;53484;51.356;6.732;2022-10-16T07:21:54;4.97;;;2.30;;
66619;SDS011;53484;51.356;6.732;2022-10-16T07:24:21;4.28;;;2.00;;
66619;SDS011;53484;51.356;6.732;2022-10-16T07:26:49;5.70;;;2.60;;
66619;SDS011;53484;51.356;6.732;2022-10-16T07:29:16;5.35;;;2.10;;
66619;SDS011;53484;51.356;6.732;2022-10-16T07:31:43;5.45;;;2.10;;
66619;SDS011;53484;51.356;6.732;2022-10-16T07:34:10;6.03;;;2.67;;
66619;SDS011;53484;51.356;6.732;2022-10-16T07:36:36;6.03;;;2.55;;
66619;SDS011;53484;51.356;6.732;2022-10-16T07:39:03;4.47;;;2.55;;
66619;SDS011;53484;51.356;6.732;2022-10-16T07:41:29;6.93;;;2.65;;
66619;SDS011;53484;51.356;6.732;2022-10-16T07:43:59;5.18;;;2.50;;
66619;SDS011;53484;51.356;6.732;2022-10-16T07:46:26;4.97;;;2.13;;
66619;SDS011;53484;51.356;6.732;2022-10-16T07:48:52;4.78;;;2.45;;
66619;SDS011;53484;51.356;6.732;2022-10-16T07:51:19;5.57;;;2.30;;
66619;SDS011;53484;51.356;6.732;2022-10-16T07:53:46;6.55;;;2.53;;
66619;SDS011;53484;51.356;6.732;2022-10-16T07:56:12;4.60;;;2.40;;
66619;SDS011;53484;51.356;6.732;2022-10-16T07:58:39;6.03;;;2.50;;
66619;SDS011;53484;51.356;6.732;2022-10-16T08:01:07;3.58;;;1.88;;
66619;SDS011;53484;51.356;6.732;2022-10-16T08:03:34;6.88;;;2.42;;
66619;SDS011;53484;51.356;6.732;2022-10-16T08:06:00;5.05;;;1.80;;
66619;SDS011;53484;51.356;6.732;2022-10-16T08:08:27;5.32;;;1.85;;
66619;SDS011;53484;51.356;6.732;2022-10-16T08:10:54;6.63;;;1.70;;
66619;SDS011;53484;51.356;6.732;2022-10-16T08:13:20;4.78;;;1.75;;
66619;SDS011;53484;51.356;6.732;2022-10-16T08:15:46;4.40;;;1.65;;
66619;SDS011;53484;51.356;6.732;2022-10-16T08:18:14;3.28;;;1.60;;
66619;SDS011;53484;51.356;6.732;2022-10-16T08:20:41;6.05;;;1.95;;
66619;SDS011;53484;51.356;6.732;2022-10-16T08:23:08;5.90;;;1.37;;
66619;SDS011;53484;51.356;6.732;2022-10-16T08:25:35;8.55;;;1.80;;
66619;SDS011;53484;51.356;6.732;2022-10-16T08:28:02;5.93;;;1.90;;
66619;SDS011;53484;51.356;6.732;2022-10-16T08:30:29;6.78;;;1.38;;
66619;SDS011;53484;51.356;6.732;2022-10-16T08:32:55;5.95;;;1.55;;
66619;SDS011;53484;51.356;6.732;2022-10-16T08:35:24;8.00;;;1.60;;
66619;SDS011;53484;51.356;6.732;2022-10-16T08:37:50;5.03;;;1.52;;
66619;SDS011;53484;51.356;6.732;2022-10-16T08:40:18;4.65;;;1.30;;
66619;SDS011;53484;51.356;6.732;2022-10-16T08:43:08;4.70;;;1.60;;
66619;SDS011;53484;51.356;6.732;2022-10-16T08:45:43;5.80;;;1.80;;
66619;SDS011;53484;51.356;6.732;2022-10-16T08:48:14;3.20;;;1.20;;
66619;SDS011;53484;51.356;6.732;2022-10-16T08:50:43;6.63;;;1.38;;
66619;SDS011;53484;51.356;6.732;2022-10-16T08:53:10;6.72;;;1.67;;
66619;SDS011;53484;51.356;6.732;2022-10-16T08:55:41;4.53;;;1.65;;
66619;SDS011;53484;51.356;6.732;2022-10-16T08:58:10;5.35;;;1.70;;
66619;SDS011;53484;51.356;6.732;2022-10-16T09:00:38;3.43;;;1.50;;
66619;SDS011;53484;51.356;6.732;2022-10-16T09:03:06;3.45;;;1.13;;
66619;SDS011;53484;51.356;6.732;2022-10-16T09:05:48;3.97;;;1.38;;
66619;SDS011;53484;51.356;6.732;2022-10-16T09:08:17;4.43;;;1.27;;
66619;SDS011;53484;51.356;6.732;2022-10-16T09:10:49;7.85;;;1.33;;
66619;SDS011;53484;51.356;6.732;2022-10-16T09:13:21;4.27;;;1.00;;
66619;SDS011;53484;51.356;6.732;2022-10-16T09:15:51;4.75;;;1.30;;
66619;SDS011;53484;51.356;6.732;2022-10-16T09:18:20;3.60;;;1.30;;
66619;SDS011;53484;51.356;6.732;2022-10-16T09:20:51;5.65;;;2.05;;
66619;SDS011;53484;51.356;6.732;2022-10-16T09:23:19;6.07;;;1.40;;
66619;SDS011;53484;51.356;6.732;2022-10-16T09:25:48;4.00;;;1.10;;
66619;SDS011;53484;51.356;6.732;2022-10-16T09:28:15;4.60;;;1.00;;
66619;SDS011;53484;51.356;6.732;2022-10-16T09:30:42;4.22;;;1.20;;
66619;SDS011;53484;51.356;6.732;2022-10-16T09:33:09;5.32;;;1.10;;
66619;SDS011;53484;51.356;6.732;2022-10-16T09:35:36;4.60;;;0.90;;
66619;SDS011;53484;51.356;6.732;2022-10-16T09:38:05;5.60;;;1.27;;
66619;SDS011;53484;51.356;6.732;2022-10-16T09:40:32;3.47;;;1.00;;
66619;SDS011;53484;51.356;6.732;2022-10-16T09:43:01;4.93;;;1.20;;
66619;SDS011;53484;51.356;6.732;2022-10-16T09:45:28;4.35;;;1.00;;
66619;SDS011;53484;51.356;6.732;2022-10-16T09:47:54;3.83;;;1.10;;
66619;SDS011;53484;51.356;6.732;2022-10-16T09:50:22;3.93;;;1.07;;
66619;SDS011;53484;51.356;6.732;2022-10-16T09:52:49;5.57;;;1.05;;
66619;SDS011;53484;51.356;6.732;2022-10-16T09:55:17;2.92;;;1.00;;
66619;SDS011;53484;51.356;6.732;2022-10-16T09:57:49;4.28;;;1.00;;
66619;SDS011;53484;51.356;6.732;2022-10-16T10:00:16;6.15;;;1.00;;
66619;SDS011;53484;51.356;6.732;2022-10-16T10:02:43;4.03;;;1.00;;
66619;SDS011;53484;51.356;6.732;2022-10-16T10:05:17;4.18;;;0.65;;
66619;SDS011;53484;51.356;6.732;2022-10-16T10:07:44;3.70;;;0.70;;
66619;SDS011;53484;51.356;6.732;2022-10-16T10:10:19;3.42;;;0.82;;
66619;SDS011;53484;51.356;6.732;2022-10-16T10:12:46;4.18;;;1.10;;
66619;SDS011;53484;51.356;6.732;2022-10-16T10:15:12;4.07;;;0.90;;
66619;SDS011;53484;51.356;6.732;2022-10-16T10:17:45;5.28;;;1.02;;
66619;SDS011;53484;51.356;6.732;2022-10-16T10:20:15;4.07;;;0.75;;
66619;SDS011;53484;51.356;6.732;2022-10-16T10:22:47;4.53;;;0.90;;
66619;SDS011;53484;51.356;6.732;2022-10-16T10:25:23;2.22;;;0.70;;
66619;SDS011;53484;51.356;6.732;2022-10-16T10:27:56;5.53;;;0.83;;
66619;SDS011;53484;51.356;6.732;2022-10-16T10:30:27;3.65;;;0.95;;
66619;SDS011;53484;51.356;6.732;2022-10-16T10:33:00;4.57;;;0.70;;
66619;SDS011;53484;51.356;6.732;2022-10-16T10:35:30;2.78;;;0.65;;
66619;SDS011;53484;51.356;6.732;2022-10-16T10:38:02;3.65;;;1.02;;
66619;SDS011;53484;51.356;6.732;2022-10-16T10:40:39;5.37;;;1.40;;
66619;SDS011;53484;51.356;6.732;2022-10-16T10:43:08;5.45;;;1.13;;
66619;SDS011;53484;51.356;6.732;2022-10-16T10:45:41;3.55;;;0.77;;
66619;SDS011;53484;51.356;6.732;2022-10-16T10:48:17;4.40;;;0.63;;
66619;SDS011;53484;51.356;6.732;2022-10-16T10:50:45;3.33;;;0.90;;
66619;SDS011;53484;51.356;6.732;2022-10-16T10:53:20;6.03;;;1.63;;
66619;SDS011;53484;51.356;6.732;2022-10-16T10:55:50;8.55;;;1.65;;
66619;SDS011;53484;51.356;6.732;2022-10-16T10:58:24;5.07;;;1.77;;
66619;SDS011;53484;51.356;6.732;2022-10-16T11:00:56;2.53;;;1.10;;
66619;SDS011;53484;51.356;6.732;2022-10-16T11:03:33;3.67;;;1.45;;
66619;SDS011;53484;51.356;6.732;2022-10-16T11:06:02;4.73;;;0.80;;
66619;SDS011;53484;51.356;6.732;2022-10-16T11:08:32;5.82;;;1.50;;
66619;SDS011;53484;51.356;6.732;2022-10-16T11:11:02;5.63;;;1.40;;
66619;SDS011;53484;51.356;6.732;2022-10-16T11:13:30;4.15;;;1.58;;
66619;SDS011;53484;51.356;6.732;2022-10-16T11:15:58;4.00;;;1.20;;
66619;SDS011;53484;51.356;6.732;2022-10-16T11:18:27;6.23;;;1.60;;
66619;SDS011;53484;51.356;6.732;2022-10-16T11:20:56;5.45;;;1.30;;
66619;SDS011;53484;51.356;6.732;2022-10-16T11:23:24;4.85;;;1.70;;
66619;SDS011;53484;51.356;6.732;2022-10-16T11:25:52;4.13;;;1.30;;
66619;SDS011;53484;51.356;6.732;2022-10-16T11:28:20;4.40;;;1.77;;
66619;SDS011;53484;51.356;6.732;2022-10-16T11:30:50;6.20;;;1.53;;
66619;SDS011;53484;51.356;6.732;2022-10-16T11:33:23;3.13;;;0.95;;
66619;SDS011;53484;51.356;6.732;2022-10-16T11:35:51;4.53;;;1.48;;
66619;SDS011;53484;51.356;6.732;2022-10-16T11:38:20;4.70;;;1.42;;
66619;SDS011;53484;51.356;6.732;2022-10-16T11:40:50;3.92;;;0.98;;
66619;SDS011;53484;51.356;6.732;2022-10-16T11:43:21;4.30;;;1.30;;
66619;SDS011;53484;51.356;6.732;2022-10-16T11:45:49;4.43;;;1.30;;
66619;SDS011;53484;51.356;6.732;2022-10-16T11:48:18;4.00;;;1.65;;
66619;SDS011;53484;51.356;6.732;2022-10-16T11:50:48;5.68;;;1.70;;
66619;SDS011;53484;51.356;6.732;2022-10-16T11:53:16;3.28;;;1.20;;
66619;SDS011;53484;51.356;6.732;2022-10-16T11:55:46;4.93;;;1.07;;
66619;SDS011;53484;51.356;6.732;2022-10-16T11:58:16;5.10;;;1.60;;
66619;SDS011;53484;51.356;6.732;2022-10-16T12:00:47;5.53;;;1.20;;
66619;SDS011;53484;51.356;6.732;2022-10-16T12:03:18;6.70;;;1.60;;
66619;SDS011;53484;51.356;6.732;2022-10-16T12:05:53;3.95;;;1.20;;
66619;SDS011;53484;51.356;6.732;2022-10-16T12:08:21;3.13;;;1.47;;
66619;SDS011;53484;51.356;6.732;2022-10-16T12:10:48;2.67;;;0.85;;
66619;SDS011;53484;51.356;6.732;2022-10-16T12:13:27;3.80;;;1.40;;
66619;SDS011;53484;51.356;6.732;2022-10-16T12:16:04;3.25;;;1.10;;
66619;SDS011;53484;51.356;6.732;2022-10-16T12:18:31;4.75;;;1.58;;
66619;SDS011;53484;51.356;6.732;2022-10-16T12:20:57;4.33;;;0.90;;
66619;SDS011;53484;51.356;6.732;2022-10-16T12:23:29;3.78;;;1.25;;
66619;SDS011;53484;51.356;6.732;2022-10-16T12:25:56;4.50;;;1.17;;
66619;SDS011;53484;51.356;6.732;2022-10-16T12:28:26;4.60;;;0.95;;
66619;SDS011;53484;51.356;6.732;2022-10-16T12:30:53;3.75;;;1.10;;
66619;SDS011;53484;51.356;6.732;2022-10-16T12:33:22;4.10;;;1.13;;
66619;SDS011;53484;51.356;6.732;2022-10-16T12:35:49;4.97;;;1.15;;
66619;SDS011;53484;51.356;6.732;2022-10-16T12:38:16;4.03;;;1.00;;
66619;SDS011;53484;51.356;6.732;2022-10-16T12:40:43;3.75;;;1.05;;
66619;SDS011;53484;51.356;6.732;2022-10-16T12:43:11;3.63;;;1.08;;
66619;SDS011;53484;51.356;6.732;2022-10-16T12:45:38;6.47;;;1.10;;
66619;SDS011;53484;51.356;6.732;2022-10-16T12:48:04;5.40;;;1.00;;
66619;SDS011;53484;51.356;6.732;2022-10-16T12:50:45;9.48;;;1.10;;
66619;SDS011;53484;51.356;6.732;2022-10-16T12:53:18;7.28;;;0.95;;
66619;SDS011;53484;51.356;6.732;2022-10-16T12:55:48;5.40;;;1.25;;
66619;SDS011;53484;51.356;6.732;2022-10-16T12:58:18;9.73;;;2.63;;
66619;SDS011;53484;51.356;6.732;2022-10-16T13:00:48;6.82;;;2.47;;
66619;SDS011;53484;51.356;6.732;2022-10-16T13:06:17;4.95;;;1.20;;
66619;SDS011;53484;51.356;6.732;2022-10-16T13:08:50;2.92;;;0.85;;
66619;SDS011;53484;51.356;6.732;2022-10-16T13:11:24;4.20;;;1.10;;
66619;SDS011;53484;51.356;6.732;2022-10-16T13:14:02;5.47;;;1.17;;
66619;SDS011;53484;51.356;6.732;2022-10-16T13:16:35;3.30;;;0.80;;
66619;SDS011;53484;51.356;6.732;2022-10-16T13:19:08;3.67;;;1.02;;
66619;SDS011;53484;51.356;6.732;2022-10-16T13:21:42;4.60;;;1.10;;
66619;SDS011;53484;51.356;6.732;2022-10-16T13:24:13;5.43;;;1.37;;
66619;SDS011;53484;51.356;6.732;2022-10-16T13:26:43;4.60;;;1.35;;
66619;SDS011;53484;51.356;6.732;2022-10-16T13:29:12;5.13;;;1.45;;
66619;SDS011;53484;51.356;6.732;2022-10-16T13:31:38;3.75;;;0.90;;
66619;SDS011;53484;51.356;6.732;2022-10-16T13:34:05;7.35;;;1.17;;
66619;SDS011;53484;51.356;6.732;2022-10-16T13:36:34;2.87;;;0.60;;
66619;SDS011;53484;51.356;6.732;2022-10-16T13:39:07;4.40;;;0.60;;
66619;SDS011;53484;51.356;6.732;2022-10-16T13:41:35;4.05;;;0.90;;
66619;SDS011;53484;51.356;6.732;2022-10-16T13:44:01;2.78;;;0.60;;
66619;SDS011;53484;51.356;6.732;2022-10-16T13:46:28;6.03;;;0.82;;
66619;SDS011;53484;51.356;6.732;2022-10-16T13:49:00;3.20;;;0.67;;
66619;SDS011;53484;51.356;6.732;2022-10-16T13:51:26;4.35;;;0.80;;
66619;SDS011;53484;51.356;6.732;2022-10-16T13:53:53;5.53;;;0.88;;
66619;SDS011;53484;51.356;6.732;2022-10-16T13:56:22;5.38;;;0.88;;
66619;SDS011;53484;51.356;6.732;2022-10-16T13:58:57;4.07;;;0.80;;
66619;SDS011;53484;51.356;6.732;2022-10-16T14:01:24;4.10;;;0.73;;
66619;SDS011;53484;51.356;6.732;2022-10-16T14:03:51;3.47;;;0.95;;
66619;SDS011;53484;51.356;6.732;2022-10-16T14:06:19;3.67;;;0.60;;
66619;SDS011;53484;51.356;6.732;2022-10-16T14:08:48;4.40;;;1.00;;
66619;SDS011;53484;51.356;6.732;2022-10-16T14:11:22;2.95;;;0.60;;
66619;SDS011;53484;51.356;6.732;2022-10-16T14:13:49;4.07;;;0.70;;
66619;SDS011;53484;51.356;6.732;2022-10-16T14:16:16;4.65;;;0.85;;
66619;SDS011;53484;51.356;6.732;2022-10-16T14:18:44;2.95;;;0.70;;
66619;SDS011;53484;51.356;6.732;2022-10-16T14:21:12;4.95;;;0.75;;
66619;SDS011;53484;51.356;6.732;2022-10-16T14:23:39;4.00;;;1.15;;
66619;SDS011;53484;51.356;6.732;2022-10-16T14:26:12;3.53;;;0.60;;
66619;SDS011;53484;51.356;6.732;2022-10-16T14:28:40;4.35;;;0.70;;
66619;SDS011;53484;51.356;6.732;2022-10-16T14:33:52;3.17;;;0.50;;
66619;SDS011;53484;51.356;6.732;2022-10-16T14:36:18;3.58;;;0.90;;
66619;SDS011;53484;51.356;6.732;2022-10-16T14:38:48;3.90;;;0.70;;
66619;SDS011;53484;51.356;6.732;2022-10-16T14:41:15;5.72;;;1.13;;
66619;SDS011;53484;51.356;6.732;2022-10-16T14:43:43;4.07;;;0.98;;
66619;SDS011;53484;51.356;6.732;2022-10-16T14:46:11;4.10;;;0.90;;
66619;SDS011;53484;51.356;6.732;2022-10-16T14:48:39;3.63;;;1.00;;
66619;SDS011;53484;51.356;6.732;2022-10-16T14:51:08;3.90;;;0.63;;
66619;SDS011;53484;51.356;6.732;2022-10-16T14:53:34;2.63;;;0.75;;
66619;SDS011;53484;51.356;6.732;2022-10-16T14:56:05;7.15;;;1.15;;
66619;SDS011;53484;51.356;6.732;2022-10-16T14:58:32;5.03;;;1.17;;
66619;SDS011;53484;51.356;6.732;2022-10-16T15:00:59;4.25;;;0.90;;
66619;SDS011;53484;51.356;6.732;2022-10-16T15:03:26;5.23;;;1.10;;
66619;SDS011;53484;51.356;6.732;2022-10-16T15:05:52;3.47;;;0.90;;
66619;SDS011;53484;51.356;6.732;2022-10-16T15:08:19;6.20;;;0.90;;
66619;SDS011;53484;51.356;6.732;2022-10-16T15:10:45;4.78;;;1.05;;
66619;SDS011;53484;51.356;6.732;2022-10-16T15:13:12;4.25;;;1.30;;
66619;SDS011;53484;51.356;6.732;2022-10-16T15:15:40;2.93;;;0.60;;
66619;SDS011;53484;51.356;6.732;2022-10-16T15:18:09;4.03;;;1.10;;
66619;SDS011;53484;51.356;6.732;2022-10-16T15:20:36;3.72;;;0.90;;
66619;SDS011;53484;51.356;6.732;2022-10-16T15:23:03;4.60;;;0.90;;
66619;SDS011;53484;51.356;6.732;2022-10-16T15:25:31;4.47;;;1.27;;
66619;SDS011;53484;51.356;6.732;2022-10-16T15:27:58;5.33;;;1.63;;
66619;SDS011;53484;51.356;6.732;2022-10-16T15:30:24;4.55;;;1.50;;
66619;SDS011;53484;51.356;6.732;2022-10-16T15:32:50;4.45;;;1.67;;
66619;SDS011;53484;51.356;6.732;2022-10-16T15:35:18;2.50;;;1.20;;
66619;SDS011;53484;51.356;6.732;2022-10-16T15:37:46;4.90;;;1.38;;
66619;SDS011;53484;51.356;6.732;2022-10-16T15:40:12;5.67;;;1.07;;
66619;SDS011;53484;51.356;6.732;2022-10-16T15:42:38;5.68;;;1.65;;
66619;SDS011;53484;51.356;6.732;2022-10-16T15:45:05;5.03;;;1.40;;
66619;SDS011;53484;51.356;6.732;2022-10-16T15:47:32;3.33;;;1.30;;
66619;SDS011;53484;51.356;6.732;2022-10-16T15:49:58;4.43;;;1.35;;
66619;SDS011;53484;51.356;6.732;2022-10-16T15:52:26;9.50;;;2.73;;
66619;SDS011;53484;51.356;6.732;2022-10-16T15:54:53;4.55;;;1.75;;
66619;SDS011;53484;51.356;6.732;2022-10-16T15:57:19;5.03;;;1.70;;
66619;SDS011;53484;51.356;6.732;2022-10-16T15:59:46;4.93;;;1.25;;
66619;SDS011;53484;51.356;6.732;2022-10-16T16:02:12;5.65;;;1.80;;
66619;SDS011;53484;51.356;6.732;2022-10-16T16:04:38;3.57;;;1.60;;
66619;SDS011;53484;51.356;6.732;2022-10-16T16:07:04;7.63;;;1.92;;
66619;SDS011;53484;51.356;6.732;2022-10-16T16:09:33;7.20;;;2.10;;
66619;SDS011;53484;51.356;6.732;2022-10-16T16:11:59;6.97;;;2.00;;
66619;SDS011;53484;51.356;6.732;2022-10-16T16:14:26;9.55;;;3.50;;
66619;SDS011;53484;51.356;6.732;2022-10-16T16:16:53;14.13;;;3.53;;
66619;SDS011;53484;51.356;6.732;2022-10-16T16:19:19;7.43;;;3.45;;
66619;SDS011;53484;51.356;6.732;2022-10-16T16:21:46;8.82;;;3.53;;
66619;SDS011;53484;51.356;6.732;2022-10-16T16:24:13;6.25;;;3.17;;
66619;SDS011;53484;51.356;6.732;2022-10-16T16:26:40;8.35;;;3.28;;
66619;SDS011;53484;51.356;6.732;2022-10-16T16:29:08;7.73;;;3.57;;
66619;SDS011;53484;51.356;6.732;2022-10-16T16:31:35;5.88;;;2.88;;
66619;SDS011;53484;51.356;6.732;2022-10-16T16:34:02;5.45;;;2.63;;
66619;SDS011;53484;51.356;6.732;2022-10-16T16:36:28;7.63;;;2.60;;
66619;SDS011;53484;51.356;6.732;2022-10-16T16:38:54;8.90;;;2.00;;
66619;SDS011;53484;51.356;6.732;2022-10-16T16:41:22;6.47;;;2.13;;
66619;SDS011;53484;51.356;6.732;2022-10-16T16:43:49;5.50;;;1.90;;
66619;SDS011;53484;51.356;6.732;2022-10-16T16:46:16;6.40;;;2.05;;
66619;SDS011;53484;51.356;6.732;2022-10-16T16:48:43;6.18;;;2.28;;
66619;SDS011;53484;51.356;6.732;2022-10-16T16:51:10;6.35;;;2.45;;
66619;SDS011;53484;51.356;6.732;2022-10-16T16:53:40;7.03;;;1.80;;
66619;SDS011;53484;51.356;6.732;2022-10-16T16:56:06;6.25;;;2.08;;
66619;SDS011;53484;51.356;6.732;2022-10-16T16:58:33;7.18;;;2.60;;
66619;SDS011;53484;51.356;6.732;2022-10-16T17:01:01;9.18;;;3.17;;
66619;SDS011;53484;51.356;6.732;2022-10-16T17:03:28;7.07;;;2.58;;
66619;SDS011;53484;51.356;6.732;2022-10-16T17:05:54;9.10;;;2.63;;
66619;SDS011;53484;51.356;6.732;2022-10-16T17:08:21;6.47;;;2.50;;
66619;SDS011;53484;51.356;6.732;2022-10-16T17:10:47;8.73;;;2.63;;
66619;SDS011;53484;51.356;6.732;2022-10-16T17:13:17;8.02;;;2.63;;
66619;SDS011;53484;51.356;6.732;2022-10-16T17:15:45;6.70;;;2.67;;
66619;SDS011;53484;51.356;6.732;2022-10-16T17:18:12;6.50;;;2.30;;
66619;SDS011;53484;51.356;6.732;2022-10-16T17:20:39;11.00;;;2.72;;
66619;SDS011;53484;51.356;6.732;2022-10-16T17:23:05;7.72;;;2.78;;
66619;SDS011;53484;51.356;6.732;2022-10-16T17:25:35;7.82;;;3.45;;
66619;SDS011;53484;51.356;6.732;2022-10-16T17:28:01;8.50;;;3.42;;
66619;SDS011;53484;51.356;6.732;2022-10-16T17:30:27;7.70;;;2.80;;
66619;SDS011;53484;51.356;6.732;2022-10-16T17:32:54;8.02;;;3.30;;
66619;SDS011;53484;51.356;6.732;2022-10-16T17:35:21;8.70;;;2.80;;
66619;SDS011;53484;51.356;6.732;2022-10-16T17:37:48;9.25;;;2.90;;
66619;SDS011;53484;51.356;6.732;2022-10-16T17:40:16;8.63;;;3.63;;
66619;SDS011;53484;51.356;6.732;2022-10-16T17:42:43;9.23;;;3.63;;
66619;SDS011;53484;51.356;6.732;2022-10-16T17:45:09;8.70;;;3.03;;
66619;SDS011;53484;51.356;6.732;2022-10-16T17:47:35;9.48;;;3.40;;
66619;SDS011;53484;51.356;6.732;2022-10-16T17:50:02;6.60;;;3.20;;
66619;SDS011;53484;51.356;6.732;2022-10-16T17:52:30;7.13;;;3.15;;
66619;SDS011;53484;51.356;6.732;2022-10-16T17:54:56;8.03;;;3.10;;
66619;SDS011;53484;51.356;6.732;2022-10-16T17:57:24;8.00;;;3.13;;
66619;SDS011;53484;51.356;6.732;2022-10-16T17:59:50;7.30;;;3.42;;
66619;SDS011;53484;51.356;6.732;2022-10-16T18:02:16;10.40;;;3.50;;
66619;SDS011;53484;51.356;6.732;2022-10-16T18:04:43;9.88;;;3.20;;
66619;SDS011;53484;51.356;6.732;2022-10-16T18:07:10;6.67;;;2.70;;
66619;SDS011;53484;51.356;6.732;2022-10-16T18:09:37;6.95;;;2.70;;
66619;SDS011;53484;51.356;6.732;2022-10-16T18:12:04;9.13;;;3.03;;
66619;SDS011;53484;51.356;6.732;2022-10-16T18:14:31;8.57;;;3.22;;
66619;SDS011;53484;51.356;6.732;2022-10-16T18:16:58;8.65;;;3.72;;
66619;SDS011;53484;51.356;6.732;2022-10-16T18:19:25;7.53;;;3.37;;
66619;SDS011;53484;51.356;6.732;2022-10-16T18:21:51;10.18;;;3.80;;
66619;SDS011;53484;51.356;6.732;2022-10-16T18:24:19;9.73;;;3.00;;
66619;SDS011;53484;51.356;6.732;2022-10-16T18:26:49;9.07;;;2.83;;
66619;SDS011;53484;51.356;6.732;2022-10-16T18:29:20;8.13;;;3.10;;
66619;SDS011;53484;51.356;6.732;2022-10-16T18:31:47;8.57;;;3.00;;
66619;SDS011;53484;51.356;6.732;2022-10-16T18:34:13;6.60;;;2.95;;
66619;SDS011;53484;51.356;6.732;2022-10-16T18:36:40;5.82;;;3.20;;
66619;SDS011;53484;51.356;6.732;2022-10-16T18:39:07;12.38;;;3.00;;
66619;SDS011;53484;51.356;6.732;2022-10-16T18:41:35;5.65;;;2.67;;
66619;SDS011;53484;51.356;6.732;2022-10-16T18:44:04;8.07;;;2.30;;
66619;SDS011;53484;51.356;6.732;2022-10-16T18:46:31;6.05;;;2.58;;
66619;SDS011;53484;51.356;6.732;2022-10-16T18:48:58;6.25;;;2.45;;
66619;SDS011;53484;51.356;6.732;2022-10-16T18:51:26;5.40;;;2.30;;
66619;SDS011;53484;51.356;6.732;2022-10-16T18:53:53;6.60;;;1.90;;
66619;SDS011;53484;51.356;6.732;2022-10-16T18:56:21;4.83;;;1.90;;
66619;SDS011;53484;51.356;6.732;2022-10-16T18:58:48;8.77;;;2.00;;
66619;SDS011;53484;51.356;6.732;2022-10-16T19:01:16;6.60;;;1.85;;
66619;SDS011;53484;51.356;6.732;2022-10-16T19:03:44;5.68;;;1.80;;
66619;SDS011;53484;51.356;6.732;2022-10-16T19:06:11;5.78;;;2.60;;
66619;SDS011;53484;51.356;6.732;2022-10-16T19:08:38;8.33;;;2.53;;
66619;SDS011;53484;51.356;6.732;2022-10-16T19:11:06;16.17;;;6.13;;
66619;SDS011;53484;51.356;6.732;2022-10-16T19:13:33;9.15;;;4.30;;
66619;SDS011;53484;51.356;6.732;2022-10-16T19:15:59;7.95;;;3.72;;